sensor_id;sensor_type;location;lat;lon;timestamp;pressure;altitude;pressure_sealevel;temperature;humidity
24610;BME280;12758;47.890;11.694;2023-05-08T00:01:14;94071.78;;;16.53;100.00
24610;BME280;12758;47.890;11.694;2023-05-08T00:03:41;94084.47;;;16.22;100.00
24610;BME280;12758;47.890;11.694;2023-05-08T00:06:08;94081.75;;;16.42;100.00
24610;BME280;12758;47.890;11.694;2023-05-08T00:08:34;94086.44;;;16.06;100.00
24610;BME280;12758;47.890;11.694;2023-05-08T00:11:00;94091.31;;;15.97;100.00
24610;BME280;12758;47.890;11.694;2023-05-08T00:13:26;94086.78;;;16.04;100.00
24610;BME280;12758;47.890;11.694;2023-05-08T00:15:52;94084.31;;;16.15;100.00
24610;BME280;12758;47.890;11.694;2023-05-08T00:18:18;94082.44;;;16.19;100.00
24610;BME280;12758;47.890;11.694;2023-05-08T00:20:44;94084.03;;;16.04;100.00
24610;BME280;12758;47.890;11.694;2023-05-08T00:23:11;94100.16;;;15.90;100.00
24610;BME280;12758;47.890;11.694;2023-05-08T00:25:36;94085.03;;;16.12;100.00
24610;BME280;12758;47.890;11.694;2023-05-08T00:28:02;94092.22;;;15.85;100.00
24610;BME280;12758;47.890;11.694;2023-05-08T00:30:28;94084.78;;;16.21;100.00
24610;BME280;12758;47.890;11.694;2023-05-08T00:32:54;94086.75;;;16.20;100.00
24610;BME280;12758;47.890;11.694;2023-05-08T00:35:21;94080.00;;;16.34;100.00
24610;BME280;12758;47.890;11.694;2023-05-08T00:37:47;94083.19;;;16.55;100.00
24610;BME280;12758;47.890;11.694;2023-05-08T00:40:13;94088.22;;;16.53;100.00
24610;BME280;12758;47.890;11.694;2023-05-08T00:42:39;94081.28;;;16.40;100.00
24610;BME280;12758;47.890;11.694;2023-05-08T00:45:07;94086.34;;;16.38;100.00
24610;BME280;12758;47.890;11.694;2023-05-08T00:47:33;94088.94;;;16.50;100.00
24610;BME280;12758;47.890;11.694;2023-05-08T00:49:59;94095.84;;;16.79;100.00
24610;BME280;12758;47.890;11.694;2023-05-08T00:52:26;94086.34;;;16.38;100.00
24610;BME280;12758;47.890;11.694;2023-05-08T00:54:52;94086.72;;;16.56;100.00
24610;BME280;12758;47.890;11.694;2023-05-08T00:57:20;94089.75;;;16.70;100.00
24610;BME280;12758;47.890;11.694;2023-05-08T00:59:47;94085.78;;;16.48;100.00
24610;BME280;12758;47.890;11.694;2023-05-08T01:02:13;94093.78;;;16.02;100.00
24610;BME280;12758;47.890;11.694;2023-05-08T01:04:40;94091.84;;;16.02;100.00
24610;BME280;12758;47.890;11.694;2023-05-08T01:07:09;94096.13;;;16.19;100.00
24610;BME280;12758;47.890;11.694;2023-05-08T01:09:35;94091.72;;;16.15;100.00
24610;BME280;12758;47.890;11.694;2023-05-08T01:12:06;94092.69;;;16.22;100.00
24610;BME280;12758;47.890;11.694;2023-05-08T01:14:40;94099.38;;;15.90;100.00
24610;BME280;12758;47.890;11.694;2023-05-08T01:17:15;94094.38;;;16.11;100.00
24610;BME280;12758;47.890;11.694;2023-05-08T01:19:57;94100.31;;;16.33;100.00
24610;BME280;12758;47.890;11.694;2023-05-08T01:22:37;94092.00;;;16.10;100.00
24610;BME280;12758;47.890;11.694;2023-05-08T01:25:40;94099.22;;;16.18;100.00
24610;BME280;12758;47.890;11.694;2023-05-08T01:28:25;94092.69;;;16.42;100.00
24610;BME280;12758;47.890;11.694;2023-05-08T01:31:06;94101.59;;;16.19;100.00
24610;BME280;12758;47.890;11.694;2023-05-08T01:33:34;94101.41;;;15.93;100.00
24610;BME280;12758;47.890;11.694;2023-05-08T01:36:09;94108.28;;;15.39;100.00
24610;BME280;12758;47.890;11.694;2023-05-08T01:38:39;94110.75;;;15.76;100.00
24610;BME280;12758;47.890;11.694;2023-05-08T01:41:10;94111.00;;;15.55;100.00
24610;BME280;12758;47.890;11.694;2023-05-08T01:43:42;94103.88;;;15.82;100.00
24610;BME280;12758;47.890;11.694;2023-05-08T01:46:17;94113.47;;;15.60;100.00
24610;BME280;12758;47.890;11.694;2023-05-08T01:48:48;94120.75;;;15.68;100.00
24610;BME280;12758;47.890;11.694;2023-05-08T01:51:17;94112.88;;;15.51;100.00
24610;BME280;12758;47.890;11.694;2023-05-08T01:53:47;94118.41;;;15.38;100.00
24610;BME280;12758;47.890;11.694;2023-05-08T01:56:15;94119.50;;;15.81;100.00
24610;BME280;12758;47.890;11.694;2023-05-08T01:58:43;94115.78;;;15.90;100.00
24610;BME280;12758;47.890;11.694;2023-05-08T02:01:10;94118.19;;;16.26;100.00
24610;BME280;12758;47.890;11.694;2023-05-08T02:03:37;94117.31;;;16.22;100.00
24610;BME280;12758;47.890;11.694;2023-05-08T02:06:05;94118.53;;;16.41;100.00
24610;BME280;12758;47.890;11.694;2023-05-08T02:08:31;94119.66;;;16.59;100.00
24610;BME280;12758;47.890;11.694;2023-05-08T02:10:58;94114.38;;;16.66;100.00
24610;BME280;12758;47.890;11.694;2023-05-08T02:13:25;94110.72;;;16.62;100.00
24610;BME280;12758;47.890;11.694;2023-05-08T02:15:53;94123.06;;;16.72;100.00
24610;BME280;12758;47.890;11.694;2023-05-08T02:18:20;94112.31;;;16.44;100.00
24610;BME280;12758;47.890;11.694;2023-05-08T02:20:49;94111.03;;;16.57;100.00
24610;BME280;12758;47.890;11.694;2023-05-08T02:23:16;94113.66;;;16.69;100.00
24610;BME280;12758;47.890;11.694;2023-05-08T02:25:43;94118.91;;;16.78;100.00
24610;BME280;12758;47.890;11.694;2023-05-08T02:28:10;94119.19;;;16.73;100.00
24610;BME280;12758;47.890;11.694;2023-05-08T02:30:37;94127.03;;;16.74;100.00
24610;BME280;12758;47.890;11.694;2023-05-08T02:33:03;94120.94;;;16.81;100.00
24610;BME280;12758;47.890;11.694;2023-05-08T02:35:32;94123.44;;;16.51;100.00
24610;BME280;12758;47.890;11.694;2023-05-08T02:37:59;94120.88;;;16.42;100.00
24610;BME280;12758;47.890;11.694;2023-05-08T02:40:28;94127.16;;;16.43;100.00
24610;BME280;12758;47.890;11.694;2023-05-08T02:42:56;94125.31;;;16.47;100.00
24610;BME280;12758;47.890;11.694;2023-05-08T02:45:22;94122.84;;;16.61;100.00
24610;BME280;12758;47.890;11.694;2023-05-08T02:47:52;94133.81;;;16.61;100.00
24610;BME280;12758;47.890;11.694;2023-05-08T02:50:27;94123.84;;;16.72;100.00
24610;BME280;12758;47.890;11.694;2023-05-08T02:53:06;94128.16;;;16.35;100.00
24610;BME280;12758;47.890;11.694;2023-05-08T02:55:38;94120.25;;;16.49;100.00
24610;BME280;12758;47.890;11.694;2023-05-08T02:58:09;94136.75;;;16.17;100.00
24610;BME280;12758;47.890;11.694;2023-05-08T03:00:41;94128.06;;;16.47;100.00
24610;BME280;12758;47.890;11.694;2023-05-08T03:03:12;94130.63;;;16.59;100.00
24610;BME280;12758;47.890;11.694;2023-05-08T03:05:43;94129.47;;;16.41;100.00
24610;BME280;12758;47.890;11.694;2023-05-08T03:08:14;94125.66;;;16.45;100.00
24610;BME280;12758;47.890;11.694;2023-05-08T03:10:42;94129.53;;;16.09;100.00
24610;BME280;12758;47.890;11.694;2023-05-08T03:13:09;94130.78;;;16.12;100.00
24610;BME280;12758;47.890;11.694;2023-05-08T03:15:40;94129.69;;;16.16;100.00
24610;BME280;12758;47.890;11.694;2023-05-08T03:18:09;94130.63;;;15.89;100.00
24610;BME280;12758;47.890;11.694;2023-05-08T03:20:38;94142.09;;;16.10;100.00
24610;BME280;12758;47.890;11.694;2023-05-08T03:23:04;94134.00;;;16.33;100.00
24610;BME280;12758;47.890;11.694;2023-05-08T03:25:33;94124.78;;;16.41;100.00
24610;BME280;12758;47.890;11.694;2023-05-08T03:28:00;94126.28;;;16.39;100.00
24610;BME280;12758;47.890;11.694;2023-05-08T03:30:29;94115.34;;;16.39;100.00
24610;BME280;12758;47.890;11.694;2023-05-08T03:32:55;94119.63;;;16.20;100.00
24610;BME280;12758;47.890;11.694;2023-05-08T03:35:22;94124.50;;;16.46;100.00
24610;BME280;12758;47.890;11.694;2023-05-08T03:37:48;94119.69;;;16.24;100.00
24610;BME280;12758;47.890;11.694;2023-05-08T03:40:14;94128.28;;;16.22;100.00
24610;BME280;12758;47.890;11.694;2023-05-08T03:42:40;94129.09;;;16.07;100.00
24610;BME280;12758;47.890;11.694;2023-05-08T03:45:10;94124.88;;;16.10;100.00
24610;BME280;12758;47.890;11.694;2023-05-08T03:47:36;94130.13;;;15.67;100.00
24610;BME280;12758;47.890;11.694;2023-05-08T03:50:03;94129.50;;;15.90;100.00
24610;BME280;12758;47.890;11.694;2023-05-08T03:52:29;94127.16;;;15.92;100.00
24610;BME280;12758;47.890;11.694;2023-05-08T03:54:56;94132.84;;;15.99;100.00
24610;BME280;12758;47.890;11.694;2023-05-08T03:57:23;94124.78;;;16.06;100.00
24610;BME280;12758;47.890;11.694;2023-05-08T03:59:59;94129.84;;;16.23;100.00
24610;BME280;12758;47.890;11.694;2023-05-08T04:02:28;94137.97;;;15.69;100.00
24610;BME280;12758;47.890;11.694;2023-05-08T04:05:00;94131.66;;;15.52;100.00
24610;BME280;12758;47.890;11.694;2023-05-08T04:07:30;94137.06;;;15.05;100.00
24610;BME280;12758;47.890;11.694;2023-05-08T04:09:58;94142.22;;;14.66;100.00
24610;BME280;12758;47.890;11.694;2023-05-08T04:12:32;94152.38;;;14.94;100.00
24610;BME280;12758;47.890;11.694;2023-05-08T04:15:03;94150.50;;;14.29;100.00
24610;BME280;12758;47.890;11.694;2023-05-08T04:17:35;94151.66;;;14.16;100.00
24610;BME280;12758;47.890;11.694;2023-05-08T04:20:05;94148.47;;;13.89;100.00
24610;BME280;12758;47.890;11.694;2023-05-08T04:22:32;94160.25;;;14.30;100.00
24610;BME280;12758;47.890;11.694;2023-05-08T04:25:02;94164.81;;;14.38;100.00
24610;BME280;12758;47.890;11.694;2023-05-08T04:27:28;94154.13;;;14.33;100.00
24610;BME280;12758;47.890;11.694;2023-05-08T04:29:55;94160.34;;;14.46;100.00
24610;BME280;12758;47.890;11.694;2023-05-08T04:32:21;94168.66;;;14.37;100.00
24610;BME280;12758;47.890;11.694;2023-05-08T04:34:48;94169.47;;;14.38;100.00
24610;BME280;12758;47.890;11.694;2023-05-08T04:37:24;94166.19;;;14.32;100.00
24610;BME280;12758;47.890;11.694;2023-05-08T04:39:51;94170.03;;;14.31;100.00
24610;BME280;12758;47.890;11.694;2023-05-08T04:42:17;94172.16;;;14.75;100.00
24610;BME280;12758;47.890;11.694;2023-05-08T04:44:43;94171.06;;;14.91;100.00
24610;BME280;12758;47.890;11.694;2023-05-08T04:47:09;94172.25;;;14.78;100.00
24610;BME280;12758;47.890;11.694;2023-05-08T04:49:35;94180.38;;;14.62;100.00
24610;BME280;12758;47.890;11.694;2023-05-08T04:52:02;94181.00;;;14.84;100.00
24610;BME280;12758;47.890;11.694;2023-05-08T04:54:28;94174.94;;;14.90;100.00
24610;BME280;12758;47.890;11.694;2023-05-08T04:56:54;94180.16;;;14.55;100.00
24610;BME280;12758;47.890;11.694;2023-05-08T04:59:20;94188.78;;;14.57;100.00
24610;BME280;12758;47.890;11.694;2023-05-08T05:01:46;94188.78;;;14.57;100.00
24610;BME280;12758;47.890;11.694;2023-05-08T05:04:12;94187.03;;;14.89;100.00
24610;BME280;12758;47.890;11.694;2023-05-08T05:06:39;94192.84;;;15.16;100.00
24610;BME280;12758;47.890;11.694;2023-05-08T05:09:06;94189.25;;;15.00;100.00
24610;BME280;12758;47.890;11.694;2023-05-08T05:11:32;94188.19;;;14.76;100.00
24610;BME280;12758;47.890;11.694;2023-05-08T05:13:58;94187.59;;;14.83;100.00
24610;BME280;12758;47.890;11.694;2023-05-08T05:16:25;94189.19;;;14.84;100.00
24610;BME280;12758;47.890;11.694;2023-05-08T05:18:51;94199.38;;;14.71;100.00
24610;BME280;12758;47.890;11.694;2023-05-08T05:21:17;94197.75;;;14.70;100.00
24610;BME280;12758;47.890;11.694;2023-05-08T05:23:43;94192.78;;;14.60;100.00
24610;BME280;12758;47.890;11.694;2023-05-08T05:26:10;94199.47;;;14.75;100.00
24610;BME280;12758;47.890;11.694;2023-05-08T05:28:36;94196.81;;;14.90;100.00
24610;BME280;12758;47.890;11.694;2023-05-08T05:31:03;94204.84;;;14.59;100.00
24610;BME280;12758;47.890;11.694;2023-05-08T05:33:29;94202.34;;;14.66;100.00
24610;BME280;12758;47.890;11.694;2023-05-08T05:35:55;94206.31;;;14.44;100.00
24610;BME280;12758;47.890;11.694;2023-05-08T05:38:21;94205.72;;;14.75;100.00
24610;BME280;12758;47.890;11.694;2023-05-08T05:40:47;94205.94;;;14.82;100.00
24610;BME280;12758;47.890;11.694;2023-05-08T05:43:14;94208.41;;;15.00;100.00
24610;BME280;12758;47.890;11.694;2023-05-08T05:45:40;94204.28;;;15.06;100.00
24610;BME280;12758;47.890;11.694;2023-05-08T05:48:06;94206.72;;;14.83;100.00
24610;BME280;12758;47.890;11.694;2023-05-08T05:50:32;94215.06;;;14.74;100.00
24610;BME280;12758;47.890;11.694;2023-05-08T05:52:58;94208.03;;;15.01;100.00
24610;BME280;12758;47.890;11.694;2023-05-08T05:55:24;94212.03;;;15.04;100.00
24610;BME280;12758;47.890;11.694;2023-05-08T05:57:51;94216.66;;;14.75;100.00
24610;BME280;12758;47.890;11.694;2023-05-08T06:00:18;94215.28;;;14.81;100.00
24610;BME280;12758;47.890;11.694;2023-05-08T06:02:45;94212.88;;;14.80;100.00
24610;BME280;12758;47.890;11.694;2023-05-08T06:05:12;94213.81;;;14.84;100.00
24610;BME280;12758;47.890;11.694;2023-05-08T06:07:38;94214.00;;;14.91;100.00
24610;BME280;12758;47.890;11.694;2023-05-08T06:10:05;94207.06;;;14.94;100.00
24610;BME280;12758;47.890;11.694;2023-05-08T06:12:31;94213.63;;;14.93;100.00
24610;BME280;12758;47.890;11.694;2023-05-08T06:14:57;94216.88;;;14.82;100.00
24610;BME280;12758;47.890;11.694;2023-05-08T06:17:24;94215.06;;;14.74;100.00
24610;BME280;12758;47.890;11.694;2023-05-08T06:19:52;94218.25;;;14.76;100.00
24610;BME280;12758;47.890;11.694;2023-05-08T06:22:20;94221.44;;;14.78;100.00
24610;BME280;12758;47.890;11.694;2023-05-08T06:24:47;94227.59;;;14.75;100.00
24610;BME280;12758;47.890;11.694;2023-05-08T06:27:14;94225.81;;;14.67;100.00
24610;BME280;12758;47.890;11.694;2023-05-08T06:29:40;94226.50;;;14.64;100.00
24610;BME280;12758;47.890;11.694;2023-05-08T06:32:06;94225.09;;;14.70;100.00
24610;BME280;12758;47.890;11.694;2023-05-08T06:34:32;94232.06;;;14.67;100.00
24610;BME280;12758;47.890;11.694;2023-05-08T06:36:58;94229.81;;;14.98;100.00
24610;BME280;12758;47.890;11.694;2023-05-08T06:39:24;94229.88;;;15.13;100.00
24610;BME280;12758;47.890;11.694;2023-05-08T06:41:50;94240.78;;;15.26;100.00
24610;BME280;12758;47.890;11.694;2023-05-08T06:44:16;94238.59;;;15.31;100.00
24610;BME280;12758;47.890;11.694;2023-05-08T06:46:42;94237.16;;;15.37;100.00
24610;BME280;12758;47.890;11.694;2023-05-08T06:49:08;94234.88;;;15.40;100.00
24610;BME280;12758;47.890;11.694;2023-05-08T06:51:35;94241.25;;;15.44;100.00
24610;BME280;12758;47.890;11.694;2023-05-08T06:54:02;94245.31;;;15.50;100.00
24610;BME280;12758;47.890;11.694;2023-05-08T06:56:32;94242.25;;;15.51;100.00
24610;BME280;12758;47.890;11.694;2023-05-08T06:58:58;94242.34;;;15.55;100.00
24610;BME280;12758;47.890;11.694;2023-05-08T07:01:24;94237.34;;;15.57;100.00
24610;BME280;12758;47.890;11.694;2023-05-08T07:03:50;94237.75;;;15.59;100.00
24610;BME280;12758;47.890;11.694;2023-05-08T07:06:16;94250.28;;;15.60;100.00
24610;BME280;12758;47.890;11.694;2023-05-08T07:08:42;94247.53;;;15.60;100.00
24610;BME280;12758;47.890;11.694;2023-05-08T07:11:08;94254.97;;;15.59;100.00
24610;BME280;12758;47.890;11.694;2023-05-08T07:13:34;94252.59;;;15.58;100.00
24610;BME280;12758;47.890;11.694;2023-05-08T07:16:01;94261.97;;;15.57;100.00
24610;BME280;12758;47.890;11.694;2023-05-08T07:18:27;94254.88;;;15.56;100.00
24610;BME280;12758;47.890;11.694;2023-05-08T07:20:53;94261.13;;;15.56;100.00
24610;BME280;12758;47.890;11.694;2023-05-08T07:23:19;94259.91;;;15.54;100.00
24610;BME280;12758;47.890;11.694;2023-05-08T07:25:46;94257.88;;;15.51;100.00
24610;BME280;12758;47.890;11.694;2023-05-08T07:28:12;94258.56;;;15.48;100.00
24610;BME280;12758;47.890;11.694;2023-05-08T07:30:38;94263.59;;;15.46;100.00
24610;BME280;12758;47.890;11.694;2023-05-08T07:33:04;94256.97;;;15.47;100.00
24610;BME280;12758;47.890;11.694;2023-05-08T07:35:30;94264.03;;;15.48;100.00
24610;BME280;12758;47.890;11.694;2023-05-08T07:37:56;94264.03;;;15.48;100.00
24610;BME280;12758;47.890;11.694;2023-05-08T07:40:22;94264.03;;;15.48;100.00
24610;BME280;12758;47.890;11.694;2023-05-08T07:42:49;94259.69;;;15.47;100.00
24610;BME280;12758;47.890;11.694;2023-05-08T07:45:15;94263.13;;;15.44;100.00
24610;BME280;12758;47.890;11.694;2023-05-08T07:47:48;94267.81;;;15.43;100.00
24610;BME280;12758;47.890;11.694;2023-05-08T07:50:14;94269.75;;;15.43;100.00
24610;BME280;12758;47.890;11.694;2023-05-08T07:52:40;94269.31;;;15.41;100.00
24610;BME280;12758;47.890;11.694;2023-05-08T07:55:07;94267.47;;;15.45;100.00
24610;BME280;12758;47.890;11.694;2023-05-08T07:57:35;94267.13;;;15.46;100.00
24610;BME280;12758;47.890;11.694;2023-05-08T08:00:03;94269.53;;;15.48;100.00
24610;BME280;12758;47.890;11.694;2023-05-08T08:02:29;94274.28;;;15.51;100.00
24610;BME280;12758;47.890;11.694;2023-05-08T08:04:55;94266.50;;;15.53;100.00
24610;BME280;12758;47.890;11.694;2023-05-08T08:07:21;94271.09;;;15.49;100.00
24610;BME280;12758;47.890;11.694;2023-05-08T08:09:47;94263.22;;;15.47;100.00
24610;BME280;12758;47.890;11.694;2023-05-08T08:12:13;94264.03;;;15.48;100.00
24610;BME280;12758;47.890;11.694;2023-05-08T08:14:40;94260.94;;;15.49;100.00
24610;BME280;12758;47.890;11.694;2023-05-08T08:17:06;94267.31;;;15.53;100.00
24610;BME280;12758;47.890;11.694;2023-05-08T08:19:32;94267.22;;;15.50;100.00
24610;BME280;12758;47.890;11.694;2023-05-08T08:21:58;94265.72;;;15.52;100.00
24610;BME280;12758;47.890;11.694;2023-05-08T08:24:24;94265.97;;;15.47;100.00
24610;BME280;12758;47.890;11.694;2023-05-08T08:26:50;94269.44;;;15.44;100.00
24610;BME280;12758;47.890;11.694;2023-05-08T08:29:16;94272.50;;;15.43;100.00
24610;BME280;12758;47.890;11.694;2023-05-08T08:31:42;94266.22;;;15.42;100.00
24610;BME280;12758;47.890;11.694;2023-05-08T08:34:09;94267.25;;;15.37;100.00
24610;BME280;12758;47.890;11.694;2023-05-08T08:36:35;94274.34;;;15.38;100.00
24610;BME280;12758;47.890;11.694;2023-05-08T08:39:01;94273.88;;;15.36;100.00
24610;BME280;12758;47.890;11.694;2023-05-08T08:41:27;94276.09;;;14.54;100.00
24610;BME280;12758;47.890;11.694;2023-05-08T08:43:53;94280.47;;;15.07;100.00
24610;BME280;12758;47.890;11.694;2023-05-08T08:46:23;94279.38;;;15.24;100.00
24610;BME280;12758;47.890;11.694;2023-05-08T08:48:49;94287.81;;;15.31;100.00
24610;BME280;12758;47.890;11.694;2023-05-08T08:51:20;94277.31;;;15.33;100.00
24610;BME280;12758;47.890;11.694;2023-05-08T08:53:48;94280.94;;;15.37;100.00
24610;BME280;12758;47.890;11.694;2023-05-08T08:56:19;94271.50;;;15.35;100.00
24610;BME280;12758;47.890;11.694;2023-05-08T08:58:51;94281.19;;;15.32;100.00
24610;BME280;12758;47.890;11.694;2023-05-08T09:01:19;94279.72;;;15.35;100.00
24610;BME280;12758;47.890;11.694;2023-05-08T09:03:45;94280.50;;;15.35;100.00
24610;BME280;12758;47.890;11.694;2023-05-08T09:06:12;94284.72;;;15.33;100.00
24610;BME280;12758;47.890;11.694;2023-05-08T09:08:39;94270.72;;;15.34;100.00
24610;BME280;12758;47.890;11.694;2023-05-08T09:11:06;94280.75;;;15.30;100.00
24610;BME280;12758;47.890;11.694;2023-05-08T09:13:32;94274.16;;;15.31;100.00
24610;BME280;12758;47.890;11.694;2023-05-08T09:15:58;94283.03;;;15.28;100.00
24610;BME280;12758;47.890;11.694;2023-05-08T09:18:24;94288.16;;;15.30;100.00
24610;BME280;12758;47.890;11.694;2023-05-08T09:20:50;94280.63;;;15.27;100.00
24610;BME280;12758;47.890;11.694;2023-05-08T09:23:16;94280.19;;;15.25;100.00
24610;BME280;12758;47.890;11.694;2023-05-08T09:25:44;94281.44;;;15.27;100.00
24610;BME280;12758;47.890;11.694;2023-05-08T09:28:16;94275.53;;;15.25;100.00
24610;BME280;12758;47.890;11.694;2023-05-08T09:30:50;94283.28;;;15.23;100.00
24610;BME280;12758;47.890;11.694;2023-05-08T09:33:17;94287.94;;;15.23;100.00
24610;BME280;12758;47.890;11.694;2023-05-08T09:35:43;94287.59;;;15.24;100.00
24610;BME280;12758;47.890;11.694;2023-05-08T09:38:21;94289.22;;;15.25;100.00
24610;BME280;12758;47.890;11.694;2023-05-08T09:41:05;94288.75;;;15.23;100.00
24610;BME280;12758;47.890;11.694;2023-05-08T09:43:32;94291.03;;;15.21;100.00
24610;BME280;12758;47.890;11.694;2023-05-08T09:46:04;94286.69;;;15.20;100.00
24610;BME280;12758;47.890;11.694;2023-05-08T09:48:44;94295.38;;;15.22;100.00
24610;BME280;12758;47.890;11.694;2023-05-08T09:51:10;94287.59;;;15.24;100.00
24610;BME280;12758;47.890;11.694;2023-05-08T09:53:36;94292.16;;;15.20;100.00
24610;BME280;12758;47.890;11.694;2023-05-08T09:56:03;94293.75;;;15.21;100.00
24610;BME280;12758;47.890;11.694;2023-05-08T09:58:37;94296.94;;;15.23;100.00
24610;BME280;12758;47.890;11.694;2023-05-08T10:01:04;94300.84;;;15.22;100.00
24610;BME280;12758;47.890;11.694;2023-05-08T10:03:45;94299.22;;;15.21;100.00
24610;BME280;12758;47.890;11.694;2023-05-08T10:06:12;94301.63;;;15.23;100.00
24610;BME280;12758;47.890;11.694;2023-05-08T10:08:38;94299.28;;;15.09;100.00
24610;BME280;12758;47.890;11.694;2023-05-08T10:11:12;94299.91;;;15.18;100.00
24610;BME280;12758;47.890;11.694;2023-05-08T10:13:39;94300.38;;;15.20;100.00
24610;BME280;12758;47.890;11.694;2023-05-08T10:16:05;94299.31;;;15.25;100.00
24610;BME280;12758;47.890;11.694;2023-05-08T10:18:33;94297.84;;;15.27;100.00
24610;BME280;12758;47.890;11.694;2023-05-08T10:21:00;94297.50;;;15.29;100.00
24610;BME280;12758;47.890;11.694;2023-05-08T10:23:29;94301.03;;;15.29;100.00
24610;BME280;12758;47.890;11.694;2023-05-08T10:25:55;94299.44;;;15.28;100.00
24610;BME280;12758;47.890;11.694;2023-05-08T10:28:28;94301.72;;;15.26;100.00
24610;BME280;12758;47.890;11.694;2023-05-08T10:30:59;94302.97;;;15.29;100.00
24610;BME280;12758;47.890;11.694;2023-05-08T10:33:30;94294.69;;;15.25;100.00
24610;BME280;12758;47.890;11.694;2023-05-08T10:35:59;94284.16;;;15.27;100.00
24610;BME280;12758;47.890;11.694;2023-05-08T10:38:25;94291.56;;;15.27;100.00
24610;BME280;12758;47.890;11.694;2023-05-08T10:40:52;94289.22;;;15.25;100.00
24610;BME280;12758;47.890;11.694;2023-05-08T10:43:22;94285.31;;;15.26;100.00
24610;BME280;12758;47.890;11.694;2023-05-08T10:45:49;94283.75;;;15.25;100.00
24610;BME280;12758;47.890;11.694;2023-05-08T10:48:20;94285.31;;;15.26;100.00
24610;BME280;12758;47.890;11.694;2023-05-08T10:50:53;94280.31;;;15.28;100.00
24610;BME280;12758;47.890;11.694;2023-05-08T10:53:30;94285.44;;;15.18;100.00
24610;BME280;12758;47.890;11.694;2023-05-08T10:55:59;94280.63;;;15.27;100.00
24610;BME280;12758;47.890;11.694;2023-05-08T10:58:29;94279.38;;;15.24;100.00
24610;BME280;12758;47.890;11.694;2023-05-08T11:01:15;94287.59;;;15.24;100.00
24610;BME280;12758;47.890;11.694;2023-05-08T11:03:43;94288.09;;;15.14;100.00
24610;BME280;12758;47.890;11.694;2023-05-08T11:06:09;94284.44;;;15.22;100.00
24610;BME280;12758;47.890;11.694;2023-05-08T11:08:44;94275.28;;;15.30;100.00
24610;BME280;12758;47.890;11.694;2023-05-08T11:11:16;94285.50;;;15.33;100.00
24610;BME280;12758;47.890;11.694;2023-05-08T11:13:49;94278.25;;;15.25;100.00
24610;BME280;12758;47.890;11.694;2023-05-08T11:16:15;94275.97;;;15.27;100.00
24610;BME280;12758;47.890;11.694;2023-05-08T11:19:15;94280.75;;;15.30;100.00
24610;BME280;12758;47.890;11.694;2023-05-08T11:24:47;94276.38;;;15.42;100.00
24610;BME280;12758;47.890;11.694;2023-05-08T11:27:13;94276.41;;;15.29;100.00
24610;BME280;12758;47.890;11.694;2023-05-08T11:29:39;94279.84;;;15.26;100.00
24610;BME280;12758;47.890;11.694;2023-05-08T11:32:05;94272.56;;;15.18;100.00
24610;BME280;12758;47.890;11.694;2023-05-08T11:34:44;94267.75;;;15.27;100.00
24610;BME280;12758;47.890;11.694;2023-05-08T11:37:11;94263.78;;;15.25;100.00
24610;BME280;12758;47.890;11.694;2023-05-08T11:39:41;94259.56;;;15.27;100.00
24610;BME280;12758;47.890;11.694;2023-05-08T11:42:34;94263.44;;;15.26;100.00
24610;BME280;12758;47.890;11.694;2023-05-08T11:45:05;94259.56;;;15.27;100.00
24610;BME280;12758;47.890;11.694;2023-05-08T11:47:36;94261.16;;;15.28;100.00
24610;BME280;12758;47.890;11.694;2023-05-08T11:50:04;94259.88;;;15.38;100.00
24610;BME280;12758;47.890;11.694;2023-05-08T11:52:31;94264.97;;;15.40;100.00
24610;BME280;12758;47.890;11.694;2023-05-08T11:55:01;94263.63;;;15.33;100.00
24610;BME280;12758;47.890;11.694;2023-05-08T11:57:28;94261.59;;;15.30;100.00
24610;BME280;12758;47.890;11.694;2023-05-08T11:59:55;94261.16;;;15.28;100.00
24610;BME280;12758;47.890;11.694;2023-05-08T12:02:33;94265.94;;;15.31;100.00
24610;BME280;12758;47.890;11.694;2023-05-08T12:04:59;94261.78;;;15.37;100.00
24610;BME280;12758;47.890;11.694;2023-05-08T12:07:27;94268.41;;;15.36;100.00
24610;BME280;12758;47.890;11.694;2023-05-08T12:09:53;94265.94;;;15.31;100.00
24610;BME280;12758;47.890;11.694;2023-05-08T12:12:19;94269.00;;;15.30;100.00
24610;BME280;12758;47.890;11.694;2023-05-08T12:14:48;94265.94;;;15.31;100.00
24610;BME280;12758;47.890;11.694;2023-05-08T12:17:15;94274.38;;;15.26;100.00
24610;BME280;12758;47.890;11.694;2023-05-08T12:19:42;94278.25;;;15.25;100.00
24610;BME280;12758;47.890;11.694;2023-05-08T12:22:08;94267.75;;;15.27;100.00
24610;BME280;12758;47.890;11.694;2023-05-08T12:24:35;94272.09;;;15.28;100.00
24610;BME280;12758;47.890;11.694;2023-05-08T12:27:01;94270.72;;;15.34;100.00
24610;BME280;12758;47.890;11.694;2023-05-08T12:29:27;94276.19;;;15.34;100.00
24610;BME280;12758;47.890;11.694;2023-05-08T12:31:53;94271.84;;;15.33;100.00
24610;BME280;12758;47.890;11.694;2023-05-08T12:34:19;94270.72;;;15.34;100.00
24610;BME280;12758;47.890;11.694;2023-05-08T12:36:45;94274.56;;;15.33;100.00
24610;BME280;12758;47.890;11.694;2023-05-08T12:39:11;94270.72;;;15.34;100.00
24610;BME280;12758;47.890;11.694;2023-05-08T12:41:45;94273.00;;;15.32;100.00
24610;BME280;12758;47.890;11.694;2023-05-08T12:44:16;94273.44;;;15.34;100.00
24610;BME280;12758;47.890;11.694;2023-05-08T12:46:45;94270.00;;;15.37;100.00
24610;BME280;12758;47.890;11.694;2023-05-08T12:49:11;94267.53;;;15.32;100.00